Time;durP1;ratioP1;P1;durP2;ratioP2;P2;SDS_P1;SDS_P2;PMS_P1;PMS_P2;Temp;Humidity;BMP_temperature;BMP_pressure;BME280_temperature;BME280_humidity;BME280_pressure;Samples;Min_cycle;Max_cycle;Signal;HPM_P1;HPM_P2
2022/07/22 00:01:09;;;;;;;6.22;1.13;;;15.70;99.90;;;;;;6269198;22;20015;-68
2022/07/22 00:03:34;;;;;;;6.93;1.30;;;15.70;99.90;;;;;;6241548;22;20019;-67
2022/07/22 00:06:02;;;;;;;5.05;1.52;;;15.70;99.90;;;;;;6270102;22;20011;-68
2022/07/22 00:08:27;;;;;;;12.93;2.08;;;15.70;99.90;;;;;;6268102;22;20019;-68
2022/07/22 00:10:53;;;;;;;7.85;1.83;;;15.70;99.90;;;;;;6267139;22;20526;-68
2022/07/22 00:13:19;;;;;;;4.90;1.70;;;15.60;99.90;;;;;;6268058;22;20022;-68
2022/07/22 00:15:45;;;;;;;10.43;2.25;;;15.60;99.90;;;;;;6241501;22;20026;-68
2022/07/22 00:18:11;;;;;;;11.23;1.88;;;15.60;99.90;;;;;;6269868;22;20016;-68
2022/07/22 00:20:37;;;;;;;8.10;2.20;;;15.60;99.90;;;;;;6266622;22;20031;-68
2022/07/22 00:23:02;;;;;;;8.57;2.25;;;15.50;99.90;;;;;;6269924;22;20090;-68
2022/07/22 00:25:28;;;;;;;6.93;2.25;;;15.50;99.90;;;;;;6269573;22;20764;-68
2022/07/22 00:27:54;;;;;;;12.57;3.03;;;15.50;99.90;;;;;;6270012;22;20099;-67
2022/07/22 00:30:20;;;;;;;15.82;4.43;;;15.50;99.90;;;;;;6268189;22;20055;-68
2022/07/22 00:32:46;;;;;;;13.43;2.67;;;15.60;99.90;;;;;;6268708;22;20044;-68
2022/07/22 00:35:12;;;;;;;13.02;4.38;;;15.60;99.90;;;;;;6270030;22;20015;-68
2022/07/22 00:37:37;;;;;;;16.02;5.90;;;15.50;99.90;;;;;;6268808;22;20516;-67
2022/07/22 00:40:04;;;;;;;16.80;6.45;;;15.50;99.90;;;;;;6267698;22;20355;-68
2022/07/22 00:42:30;;;;;;;12.85;6.75;;;15.50;99.90;;;;;;6268631;22;20023;-68
2022/07/22 00:44:55;;;;;;;21.30;6.78;;;15.50;99.90;;;;;;6268005;22;20020;-68
2022/07/22 00:47:22;;;;;;;18.70;4.65;;;15.50;99.90;;;;;;6269735;22;20034;-68
2022/07/22 00:49:48;;;;;;;12.38;3.28;;;15.50;99.90;;;;;;6267257;22;20034;-67
2022/07/22 00:52:14;;;;;;;14.70;3.97;;;15.50;99.90;;;;;;6269508;22;20339;-68
2022/07/22 00:54:43;;;;;;;13.33;3.47;;;15.60;99.90;;;;;;6268631;22;20016;-68
2022/07/22 00:57:08;;;;;;;11.10;3.05;;;15.50;99.90;;;;;;6269719;22;20038;-68
2022/07/22 00:59:34;;;;;;;19.85;3.78;;;15.50;99.90;;;;;;6268041;22;20467;-68
2022/07/22 01:02:01;;;;;;;6.70;1.63;;;15.60;99.90;;;;;;6269946;22;20024;-68
2022/07/22 01:04:27;;;;;;;8.63;1.88;;;15.60;99.90;;;;;;6269629;22;20065;-68
2022/07/22 01:06:52;;;;;;;7.55;2.17;;;15.50;99.90;;;;;;6268961;22;20049;-68
2022/07/22 01:09:18;;;;;;;9.48;2.10;;;15.60;99.90;;;;;;6269652;22;20019;-68
2022/07/22 01:11:44;;;;;;;7.97;1.77;;;15.70;99.90;;;;;;6268171;22;20032;-67
2022/07/22 01:14:10;;;;;;;9.65;2.50;;;15.70;99.90;;;;;;6269063;22;20027;-68
2022/07/22 01:16:36;;;;;;;9.80;1.88;;;15.70;99.90;;;;;;6267563;22;20082;-68
2022/07/22 01:19:02;;;;;;;7.57;1.90;;;15.70;99.90;;;;;;6270177;22;20012;-68
2022/07/22 01:21:28;;;;;;;8.82;2.10;;;15.80;99.90;;;;;;6241288;22;20023;-68
2022/07/22 01:23:53;;;;;;;12.35;2.22;;;15.70;99.90;;;;;;6269516;22;20051;-68
2022/07/22 01:26:19;;;;;;;10.45;3.58;;;15.80;99.90;;;;;;6269382;22;20023;-68
2022/07/22 01:28:45;;;;;;;12.90;2.40;;;15.70;99.90;;;;;;6268658;22;20435;-68
2022/07/22 01:31:11;;;;;;;10.82;3.08;;;15.70;99.90;;;;;;6268858;22;20024;-68
2022/07/22 01:33:37;;;;;;;10.30;2.63;;;15.80;99.90;;;;;;6265744;22;20020;-67
2022/07/22 01:36:05;;;;;;;14.80;2.22;;;15.80;99.90;;;;;;6241809;22;20120;-68
2022/07/22 01:38:30;;;;;;;9.05;2.60;;;15.70;99.90;;;;;;6267754;22;20465;-68
2022/07/22 01:40:56;;;;;;;8.38;2.25;;;15.70;99.90;;;;;;6269289;22;20024;-68
2022/07/22 01:43:22;;;;;;;10.48;2.42;;;15.70;99.90;;;;;;6268758;22;20012;-67
2022/07/22 01:45:50;;;;;;;12.75;3.42;;;15.70;99.90;;;;;;6268734;22;20033;-68
2022/07/22 01:48:15;;;;;;;13.13;3.03;;;15.70;99.90;;;;;;6267180;22;20023;-68
2022/07/22 01:50:42;;;;;;;10.35;2.78;;;15.70;99.90;;;;;;6268095;22;20027;-68
2022/07/22 01:53:08;;;;;;;12.00;2.88;;;15.60;99.90;;;;;;6268902;22;20019;-68
2022/07/22 01:55:34;;;;;;;9.27;2.22;;;15.60;99.90;;;;;;6265664;22;20097;-68
2022/07/22 01:57:59;;;;;;;13.68;2.60;;;15.60;99.90;;;;;;6269959;22;20312;-67
2022/07/22 02:00:25;;;;;;;10.30;2.83;;;15.60;99.90;;;;;;6265970;22;20038;-67
2022/07/22 02:02:51;;;;;;;11.00;2.33;;;15.60;99.90;;;;;;6268670;22;20022;-68
2022/07/22 02:05:17;;;;;;;5.57;2.13;;;15.60;99.90;;;;;;6241765;22;20083;-68
2022/07/22 02:07:43;;;;;;;11.05;3.30;;;15.60;99.90;;;;;;6268310;22;20019;-67
2022/07/22 02:10:09;;;;;;;9.27;2.63;;;15.60;99.90;;;;;;6267189;22;20292;-68
2022/07/22 02:12:35;;;;;;;10.82;2.60;;;15.60;99.90;;;;;;6266462;22;20446;-68
2022/07/22 02:15:01;;;;;;;7.90;2.05;;;15.60;99.90;;;;;;6267916;22;20024;-68
2022/07/22 02:17:27;;;;;;;6.05;2.00;;;15.50;99.90;;;;;;6265591;22;20343;-67
2022/07/22 02:19:53;;;;;;;12.75;1.80;;;15.60;99.90;;;;;;6268579;22;20020;-67
2022/07/22 02:22:19;;;;;;;9.65;1.58;;;15.60;99.90;;;;;;6269030;22;20030;-67
2022/07/22 02:24:45;;;;;;;5.75;1.33;;;15.60;99.90;;;;;;6270908;22;20011;-68
2022/07/22 02:27:11;;;;;;;6.88;1.63;;;15.60;99.90;;;;;;6269277;22;20054;-68
2022/07/22 02:29:37;;;;;;;8.50;2.65;;;15.70;99.90;;;;;;6269498;22;20022;-68
2022/07/22 02:32:03;;;;;;;8.52;1.40;;;15.70;99.90;;;;;;6271607;22;20023;-67
2022/07/22 02:34:29;;;;;;;8.82;1.80;;;15.70;99.90;;;;;;6269149;22;20024;-67
2022/07/22 02:36:55;;;;;;;3.88;1.27;;;15.70;99.90;;;;;;6244129;22;20022;-68
2022/07/22 02:39:21;;;;;;;4.70;1.20;;;15.70;99.90;;;;;;6268214;22;20023;-67
2022/07/22 02:41:46;;;;;;;4.57;1.35;;;15.70;99.90;;;;;;6270967;22;20016;-67
2022/07/22 02:44:12;;;;;;;3.38;1.77;;;15.70;99.90;;;;;;6270925;22;20024;-67
2022/07/22 02:46:38;;;;;;;6.53;1.50;;;15.70;99.90;;;;;;6267928;22;20019;-68
2022/07/22 02:49:04;;;;;;;5.50;1.42;;;15.70;99.90;;;;;;6271329;22;20426;-68
2022/07/22 02:51:30;;;;;;;5.50;1.45;;;15.70;99.90;;;;;;6268732;22;20089;-68
2022/07/22 02:53:56;;;;;;;7.25;1.90;;;15.60;99.90;;;;;;6269944;22;20016;-68
2022/07/22 02:56:22;;;;;;;11.50;1.50;;;15.60;99.90;;;;;;6268669;22;20015;-68
2022/07/22 02:58:51;;;;;;;5.05;1.23;;;15.60;99.90;;;;;;6269238;22;20022;-68
2022/07/22 03:01:17;;;;;;;5.53;1.38;;;15.60;99.90;;;;;;6268532;22;20023;-67
2022/07/22 03:03:43;;;;;;;10.27;1.50;;;15.70;99.90;;;;;;6270439;22;20015;-68
2022/07/22 03:06:09;;;;;;;7.05;1.95;;;15.70;99.90;;;;;;6270650;22;20023;-68
2022/07/22 03:08:34;;;;;;;11.52;3.45;;;15.60;99.90;;;;;;6266857;22;20020;-67
2022/07/22 03:11:01;;;;;;;8.93;1.92;;;15.60;99.90;;;;;;6270974;22;20024;-68
2022/07/22 03:13:27;;;;;;;5.97;1.70;;;15.60;99.90;;;;;;6267551;22;20020;-67
2022/07/22 03:15:53;;;;;;;7.38;2.08;;;15.60;99.90;;;;;;6271145;22;20515;-68
2022/07/22 03:18:18;;;;;;;10.73;1.83;;;15.60;99.90;;;;;;6268018;22;20019;-67
2022/07/22 03:20:44;;;;;;;7.28;2.88;;;15.60;99.90;;;;;;6268515;22;20023;-67
2022/07/22 03:23:10;;;;;;;6.93;2.28;;;15.60;99.90;;;;;;6269234;22;20026;-67
2022/07/22 03:25:35;;;;;;;8.00;1.92;;;15.60;99.90;;;;;;6268886;22;20389;-68
2022/07/22 03:28:01;;;;;;;4.53;1.85;;;15.60;99.90;;;;;;6271130;22;20019;-67
2022/07/22 03:30:27;;;;;;;5.38;1.98;;;15.60;99.90;;;;;;6268895;22;20020;-67
2022/07/22 03:32:52;;;;;;;7.55;1.25;;;15.50;99.90;;;;;;6269396;22;20070;-67
2022/07/22 03:35:19;;;;;;;4.47;1.33;;;15.50;99.90;;;;;;6268844;22;20020;-67
2022/07/22 03:37:45;;;;;;;3.63;1.20;;;15.50;99.90;;;;;;6268779;22;20512;-67
2022/07/22 03:40:11;;;;;;;2.65;0.88;;;15.50;99.90;;;;;;6270697;22;20090;-67
2022/07/22 03:42:37;;;;;;;2.65;1.08;;;15.50;99.90;;;;;;6241956;22;20359;-67
2022/07/22 03:45:03;;;;;;;5.18;1.25;;;15.50;99.90;;;;;;6271155;22;20022;-67
2022/07/22 03:47:29;;;;;;;7.00;1.27;;;15.50;99.90;;;;;;6266471;22;20085;-68
2022/07/22 03:49:56;;;;;;;5.22;1.20;;;15.50;99.90;;;;;;6269105;22;20397;-68
2022/07/22 03:52:22;;;;;;;4.65;1.17;;;15.50;99.90;;;;;;6268680;22;20015;-67
2022/07/22 03:54:48;;;;;;;7.40;1.40;;;15.50;99.90;;;;;;6268491;22;20069;-68
2022/07/22 03:57:13;;;;;;;5.53;1.25;;;15.60;99.90;;;;;;6242382;22;20026;-67
2022/07/22 03:59:39;;;;;;;5.53;1.30;;;15.60;99.90;;;;;;6269206;22;20041;-67
2022/07/22 04:02:05;;;;;;;10.98;1.67;;;15.60;99.90;;;;;;6270677;22;20112;-67
2022/07/22 04:04:31;;;;;;;4.32;1.50;;;15.60;99.90;;;;;;6266896;22;20461;-67
2022/07/22 04:06:56;;;;;;;5.93;1.20;;;15.60;99.90;;;;;;6270493;22;20020;-67
2022/07/22 04:09:22;;;;;;;6.10;1.20;;;15.60;99.90;;;;;;6266016;22;20034;-67
2022/07/22 04:11:50;;;;;;;8.65;1.70;;;15.60;99.90;;;;;;6268741;22;20389;-68
2022/07/22 04:14:16;;;;;;;8.63;1.77;;;15.60;99.90;;;;;;6269369;22;20058;-67
2022/07/22 04:16:46;;;;;;;6.28;1.50;;;15.60;99.90;;;;;;6270275;22;20020;-67
2022/07/22 04:19:12;;;;;;;4.70;1.40;;;15.50;99.90;;;;;;6270193;22;20020;-68
2022/07/22 04:21:43;;;;;;;6.55;1.20;;;15.60;99.90;;;;;;6265322;22;20435;-67
2022/07/22 04:24:09;;;;;;;8.55;2.00;;;15.60;99.90;;;;;;6268440;22;20023;-67
2022/07/22 04:26:36;;;;;;;7.78;2.30;;;15.60;99.90;;;;;;6266425;22;20038;-67
2022/07/22 04:29:03;;;;;;;10.63;2.15;;;15.60;99.90;;;;;;6268843;22;20073;-67
2022/07/22 04:31:30;;;;;;;10.88;2.80;;;15.60;99.90;;;;;;6267989;22;20027;-67
2022/07/22 04:33:57;;;;;;;6.50;1.92;;;15.50;99.90;;;;;;6269461;22;20047;-67
2022/07/22 04:36:23;;;;;;;7.97;2.60;;;15.50;99.90;;;;;;6266994;22;20012;-67
2022/07/22 04:38:49;;;;;;;11.18;4.13;;;15.50;99.90;;;;;;6241567;22;20103;-67
2022/07/22 04:41:15;;;;;;;11.40;5.00;;;15.50;99.90;;;;;;6268062;22;20020;-68
2022/07/22 04:43:41;;;;;;;16.13;5.57;;;15.40;99.90;;;;;;6265483;22;20027;-67
2022/07/22 04:46:07;;;;;;;16.70;4.03;;;15.50;99.90;;;;;;6270292;22;20454;-68
2022/07/22 05:52:37;;;;;;;8.23;2.55;;;15.60;99.90;;;;;;6190789;22;20027;-68
2022/07/22 05:55:03;;;;;;;9.88;2.60;;;15.60;99.90;;;;;;6237509;22;20121;-67
2022/07/22 05:57:29;;;;;;;7.05;2.30;;;15.60;99.90;;;;;;6236388;23;20435;-68
2022/07/22 05:59:54;;;;;;;4.57;1.73;;;15.60;99.90;;;;;;6237448;23;20016;-68
2022/07/22 06:02:20;;;;;;;7.32;1.75;;;15.60;99.90;;;;;;6236680;23;20030;-68
2022/07/22 06:04:46;;;;;;;7.53;1.70;;;15.60;99.90;;;;;;6237641;22;20016;-67
2022/07/22 06:07:12;;;;;;;4.63;1.65;;;15.60;99.90;;;;;;6239268;22;20051;-67
2022/07/22 06:09:38;;;;;;;8.07;1.40;;;15.60;99.90;;;;;;6236530;23;20024;-68
2022/07/22 06:12:04;;;;;;;8.63;1.50;;;15.60;99.90;;;;;;6238775;22;20419;-68
2022/07/22 06:14:30;;;;;;;7.82;3.10;;;15.60;99.90;;;;;;6237533;23;20016;-67
2022/07/22 06:16:58;;;;;;;11.65;3.33;;;15.60;99.90;;;;;;6238448;23;20024;-68
2022/07/22 06:19:24;;;;;;;9.52;2.42;;;15.60;99.90;;;;;;6236953;23;20020;-67
2022/07/22 06:21:50;;;;;;;6.75;2.22;;;15.60;99.90;;;;;;6237867;22;20016;-68
2022/07/22 06:24:16;;;;;;;7.30;2.63;;;15.60;99.90;;;;;;6238398;23;20024;-68
2022/07/22 06:26:42;;;;;;;4.05;1.50;;;15.70;99.90;;;;;;6237950;22;20020;-67
2022/07/22 06:29:08;;;;;;;6.45;1.77;;;15.70;99.90;;;;;;6237787;23;20406;-68
2022/07/22 06:31:33;;;;;;;3.45;1.50;;;15.70;99.90;;;;;;6239272;23;20023;-67
2022/07/22 06:33:59;;;;;;;6.47;1.20;;;15.70;99.90;;;;;;6238567;23;20020;-68
2022/07/22 06:36:25;;;;;;;9.77;1.80;;;15.70;99.90;;;;;;6237173;23;20020;-68
2022/07/22 06:38:51;;;;;;;4.72;1.13;;;15.70;99.90;;;;;;6236168;23;20016;-67
2022/07/22 06:41:19;;;;;;;4.63;1.48;;;15.70;99.90;;;;;;6236930;23;20494;-68
2022/07/22 06:43:45;;;;;;;4.97;1.92;;;15.80;99.90;;;;;;6230483;23;20115;-68
2022/07/22 06:46:11;;;;;;;6.05;1.75;;;15.80;99.90;;;;;;6232772;23;20080;-68
2022/07/22 06:48:37;;;;;;;2.33;1.13;;;15.90;99.90;;;;;;6233380;23;20043;-68
2022/07/22 06:51:02;;;;;;;3.63;0.88;;;15.90;99.90;;;;;;6233990;23;20023;-68
2022/07/22 06:53:28;;;;;;;5.93;1.20;;;15.90;99.90;;;;;;6233822;23;20055;-68
2022/07/22 06:55:54;;;;;;;4.50;0.88;;;15.90;99.90;;;;;;6232965;23;20017;-68
2022/07/22 06:58:20;;;;;;;2.60;0.75;;;15.90;99.90;;;;;;6235095;23;20048;-68
2022/07/22 07:00:46;;;;;;;3.88;1.02;;;16.00;99.90;;;;;;6231938;23;20474;-68
2022/07/22 07:03:11;;;;;;;2.22;1.00;;;16.00;99.90;;;;;;6233204;23;20027;-68
2022/07/22 07:05:37;;;;;;;5.65;1.10;;;16.00;99.90;;;;;;6206449;23;20024;-68
2022/07/22 07:08:03;;;;;;;4.55;1.13;;;16.00;99.90;;;;;;6234368;23;20051;-68
2022/07/22 07:10:31;;;;;;;3.33;1.02;;;16.00;99.90;;;;;;6234430;23;20370;-67
2022/07/22 07:12:58;;;;;;;7.15;1.75;;;16.00;99.90;;;;;;6234708;23;20020;-67
2022/07/22 07:15:25;;;;;;;4.53;1.17;;;16.10;99.90;;;;;;6234478;23;20039;-68
2022/07/22 07:17:58;;;;;;;9.50;1.40;;;16.20;99.90;;;;;;6231050;23;20051;-68
2022/07/22 07:20:25;;;;;;;5.85;1.40;;;16.20;99.90;;;;;;6235825;23;20032;-68
2022/07/22 07:22:50;;;;;;;10.88;2.08;;;16.30;99.90;;;;;;6235615;23;20140;-68
2022/07/22 07:25:17;;;;;;;3.10;0.70;;;16.30;99.90;;;;;;6235733;23;20455;-68
2022/07/22 07:27:42;;;;;;;8.95;1.00;;;16.40;99.90;;;;;;6236148;22;20359;-68
2022/07/22 07:30:09;;;;;;;6.97;1.52;;;16.40;99.90;;;;;;6208587;23;20022;-68
2022/07/22 07:32:36;;;;;;;2.60;0.88;;;16.40;99.90;;;;;;6237541;23;20012;-68
2022/07/22 07:35:03;;;;;;;2.58;0.95;;;16.30;99.90;;;;;;6237839;22;20020;-68
2022/07/22 07:37:28;;;;;;;4.65;0.85;;;16.30;99.90;;;;;;6240071;22;20435;-68
2022/07/22 07:39:54;;;;;;;7.22;1.38;;;16.40;99.90;;;;;;6210530;23;20035;-68
2022/07/22 07:42:20;;;;;;;7.22;1.10;;;16.40;99.90;;;;;;6238188;23;20028;-68
2022/07/22 07:44:46;;;;;;;9.05;1.38;;;16.50;99.90;;;;;;6238728;23;20459;-68
2022/07/22 07:47:17;;;;;;;4.97;1.50;;;16.50;99.90;;;;;;6237379;23;20029;-68
2022/07/22 07:49:43;;;;;;;4.97;1.15;;;16.50;99.90;;;;;;6239253;22;20122;-68
2022/07/22 07:52:09;;;;;;;1.88;0.85;;;16.50;99.90;;;;;;6237958;22;20024;-68
2022/07/22 07:54:35;;;;;;;5.07;1.13;;;16.60;99.90;;;;;;6238754;23;20016;-67
2022/07/22 07:57:01;;;;;;;6.85;1.42;;;16.60;99.90;;;;;;6236478;23;20575;-68
2022/07/22 07:59:27;;;;;;;5.05;1.50;;;16.60;99.90;;;;;;6238061;23;20016;-68
2022/07/22 08:01:53;;;;;;;4.15;1.00;;;16.60;99.90;;;;;;6236779;23;20126;-68
2022/07/22 08:04:18;;;;;;;4.70;1.25;;;16.60;99.90;;;;;;6239586;23;20017;-68
2022/07/22 08:06:44;;;;;;;5.88;1.15;;;16.60;99.90;;;;;;6237582;23;20020;-68
2022/07/22 08:09:10;;;;;;;5.65;1.45;;;16.60;99.90;;;;;;6236616;23;20019;-68
2022/07/22 08:11:36;;;;;;;5.97;1.17;;;16.50;99.90;;;;;;6236777;23;20099;-68
2022/07/22 08:14:04;;;;;;;3.00;1.45;;;16.50;99.90;;;;;;6236287;23;20325;-68
2022/07/22 08:16:30;;;;;;;3.72;2.10;;;16.50;99.90;;;;;;6212535;23;20078;-68
2022/07/22 08:18:56;;;;;;;2.22;0.85;;;16.50;99.90;;;;;;6235700;23;20020;-68
2022/07/22 08:21:22;;;;;;;4.93;0.98;;;16.50;99.90;;;;;;6236969;23;20078;-68
2022/07/22 08:23:47;;;;;;;8.70;1.30;;;16.60;99.90;;;;;;6238462;23;20027;-68
2022/07/22 08:26:13;;;;;;;3.92;0.73;;;16.60;99.90;;;;;;6211672;23;20016;-68
2022/07/22 08:28:40;;;;;;;1.45;0.63;;;16.60;99.90;;;;;;6211535;23;20066;-68
2022/07/22 08:31:06;;;;;;;5.85;1.00;;;16.70;99.90;;;;;;6236893;23;20024;-69
2022/07/22 08:33:31;;;;;;;3.33;1.00;;;16.80;99.90;;;;;;6237720;23;20031;-69
2022/07/22 08:35:57;;;;;;;3.28;0.88;;;16.80;99.90;;;;;;6235119;23;20027;-68
2022/07/22 08:38:23;;;;;;;3.75;0.77;;;16.90;99.90;;;;;;6237892;23;20529;-68
2022/07/22 08:40:49;;;;;;;3.15;0.90;;;17.00;99.90;;;;;;6238224;23;20012;-68
2022/07/22 08:43:15;;;;;;;5.55;1.02;;;17.00;99.90;;;;;;6236939;23;20020;-68
2022/07/22 08:45:41;;;;;;;4.90;0.80;;;17.20;99.90;;;;;;6238577;23;20016;-68
2022/07/22 08:48:07;;;;;;;3.85;0.90;;;17.20;98.60;;;;;;6236128;23;20036;-68
2022/07/22 08:50:33;;;;;;;8.25;1.30;;;17.20;98.20;;;;;;6237315;23;20028;-68
2022/07/22 08:52:59;;;;;;;4.70;1.00;;;17.20;99.50;;;;;;6236336;22;20455;-68
2022/07/22 08:55:25;;;;;;;6.75;1.05;;;17.20;99.70;;;;;;6237049;23;20080;-69
2022/07/22 08:57:51;;;;;;;5.30;0.90;;;17.20;99.90;;;;;;6235042;23;20018;-68
2022/07/22 09:00:22;;;;;;;4.80;0.90;;;17.20;99.90;;;;;;6239339;22;20034;-69
2022/07/22 09:02:48;;;;;;;4.07;0.80;;;17.20;99.90;;;;;;6238153;22;20016;-68
2022/07/22 09:05:15;;;;;;;4.38;0.90;;;17.20;99.90;;;;;;6236604;23;20020;-68
2022/07/22 09:07:43;;;;;;;6.55;1.38;;;17.10;99.90;;;;;;6238941;22;20020;-68
2022/07/22 09:10:17;;;;;;;4.53;0.85;;;17.00;99.90;;;;;;6237882;22;20040;-68
2022/07/22 09:12:59;;;;;;;6.95;1.38;;;16.90;99.90;;;;;;6237109;23;20024;-69
2022/07/22 09:15:35;;;;;;;4.40;0.95;;;16.90;99.90;;;;;;6211470;23;20027;-69
2022/07/22 09:18:02;;;;;;;4.88;1.02;;;16.80;99.90;;;;;;6236200;23;20070;-68
2022/07/22 09:20:29;;;;;;;5.57;0.82;;;16.70;99.90;;;;;;6212201;23;20027;-69
2022/07/22 09:22:55;;;;;;;6.35;1.00;;;16.80;99.90;;;;;;6209873;23;20016;-69
2022/07/22 09:25:33;;;;;;;6.35;1.50;;;16.80;99.90;;;;;;6236566;23;20406;-68
2022/07/22 09:28:08;;;;;;;3.30;0.90;;;16.90;99.90;;;;;;6235026;23;20051;-69
2022/07/22 09:30:35;;;;;;;2.00;0.90;;;17.10;99.90;;;;;;6237391;23;20450;-68
2022/07/22 09:33:02;;;;;;;3.80;0.80;;;17.10;99.90;;;;;;6236456;23;20017;-69
2022/07/22 09:35:28;;;;;;;5.03;0.82;;;17.20;99.90;;;;;;6210790;23;20415;-69
2022/07/22 09:38:03;;;;;;;3.28;0.77;;;17.30;99.90;;;;;;6236921;23;20024;-69
2022/07/22 09:40:37;;;;;;;2.78;0.73;;;17.30;99.90;;;;;;6235313;23;20020;-69
2022/07/22 09:43:12;;;;;;;5.07;0.90;;;17.30;99.90;;;;;;6236226;23;20443;-69
2022/07/22 09:46:05;;;;;;;2.40;0.70;;;17.20;99.90;;;;;;6235728;22;20110;-69
2022/07/22 09:48:31;;;;;;;3.20;0.80;;;17.20;99.90;;;;;;6232881;23;20020;-69
2022/07/22 09:50:58;;;;;;;4.32;1.08;;;17.20;99.90;;;;;;6237784;23;20097;-68
2022/07/22 09:53:29;;;;;;;3.40;0.82;;;17.20;99.90;;;;;;6234390;23;20421;-69
2022/07/22 09:55:59;;;;;;;2.85;0.80;;;17.10;99.20;;;;;;6235252;23;20024;-69
2022/07/22 09:58:26;;;;;;;6.35;0.90;;;17.10;99.90;;;;;;6235779;23;20079;-69
2022/07/22 10:00:53;;;;;;;4.72;0.93;;;17.10;99.90;;;;;;6236043;23;20385;-69
2022/07/22 10:03:33;;;;;;;5.82;0.90;;;17.20;99.90;;;;;;6236352;23;20404;-68
2022/07/22 10:06:01;;;;;;;4.13;0.90;;;17.20;99.90;;;;;;6236912;22;20008;-69
2022/07/22 10:08:29;;;;;;;3.20;0.82;;;17.20;99.90;;;;;;6239158;22;20012;-69
2022/07/22 10:11:00;;;;;;;3.03;0.80;;;17.20;99.90;;;;;;6234885;23;20051;-68
2022/07/22 10:13:26;;;;;;;1.63;0.60;;;17.30;99.90;;;;;;6211566;23;20028;-68
2022/07/22 10:15:54;;;;;;;6.72;1.05;;;17.40;99.90;;;;;;6209925;23;20431;-69
2022/07/22 10:18:21;;;;;;;4.13;0.80;;;17.50;99.90;;;;;;6236027;23;20020;-69
2022/07/22 10:20:46;;;;;;;2.58;0.65;;;17.60;97.50;;;;;;6236173;23;20027;-68
2022/07/22 10:23:13;;;;;;;2.67;0.70;;;17.70;99.90;;;;;;6209954;23;20444;-69
2022/07/22 10:26:00;;;;;;;3.75;1.23;;;17.80;95.70;;;;;;6236592;23;20066;-69
2022/07/22 10:28:37;;;;;;;5.38;1.23;;;17.80;97.80;;;;;;6235097;23;20551;-69
2022/07/22 10:31:19;;;;;;;7.85;0.95;;;17.70;95.40;;;;;;6236040;23;20522;-69
2022/07/22 10:33:54;;;;;;;4.13;0.68;;;17.70;99.00;;;;;;6238106;22;20020;-69
2022/07/22 10:36:42;;;;;;;3.60;0.85;;;17.60;97.90;;;;;;6236441;22;20012;-69
2022/07/22 10:39:13;;;;;;;2.83;0.73;;;17.60;99.20;;;;;;6233203;23;20024;-69
2022/07/22 10:41:42;;;;;;;4.82;0.98;;;17.60;99.30;;;;;;6235168;23;20023;-69
2022/07/22 10:44:08;;;;;;;5.60;1.07;;;17.60;99.90;;;;;;6239302;22;20012;-69
2022/07/22 10:46:54;;;;;;;5.68;1.25;;;17.70;97.50;;;;;;6237467;23;20398;-69
2022/07/22 10:49:23;;;;;;;1.60;0.70;;;17.70;95.90;;;;;;6211379;23;20023;-69
2022/07/22 10:52:16;;;;;;;3.08;0.90;;;17.70;94.50;;;;;;6238464;23;20020;-69
2022/07/22 10:55:20;;;;;;;6.82;0.95;;;17.60;99.30;;;;;;6238764;22;20208;-69
2022/07/22 10:57:46;;;;;;;2.40;0.77;;;17.60;96.30;;;;;;6211613;23;20020;-69
2022/07/22 11:00:11;;;;;;;4.18;0.70;;;17.50;97.40;;;;;;6237243;23;20020;-69
2022/07/22 11:02:39;;;;;;;4.47;0.70;;;17.50;99.30;;;;;;6237275;23;20062;-69
2022/07/22 11:05:06;;;;;;;3.90;0.70;;;17.40;99.90;;;;;;6238279;23;20020;-70
2022/07/22 11:07:34;;;;;;;3.17;0.80;;;17.40;99.90;;;;;;6234516;23;20447;-69
2022/07/22 11:10:17;;;;;;;4.45;1.13;;;17.40;99.90;;;;;;6237698;23;20020;-69
2022/07/22 11:12:43;;;;;;;5.03;1.00;;;17.30;99.90;;;;;;6236176;23;20027;-69
2022/07/22 11:15:10;;;;;;;2.92;0.75;;;17.30;99.90;;;;;;6234457;23;20100;-69
2022/07/22 11:17:37;;;;;;;3.35;0.90;;;17.30;99.90;;;;;;6236487;23;20063;-69
2022/07/22 11:20:09;;;;;;;1.13;0.40;;;17.30;99.90;;;;;;6235002;23;20031;-69
2022/07/22 11:22:36;;;;;;;3.03;0.70;;;17.30;99.90;;;;;;6236194;23;20024;-69
2022/07/22 11:25:07;;;;;;;4.78;0.73;;;17.40;99.90;;;;;;6234373;23;20123;-69
2022/07/22 11:27:33;;;;;;;7.45;0.95;;;17.50;99.90;;;;;;6212179;23;20537;-69
2022/07/22 11:29:59;;;;;;;3.22;0.82;;;17.60;99.90;;;;;;6236645;23;20012;-70
2022/07/22 11:32:30;;;;;;;8.25;1.15;;;17.80;99.90;;;;;;6236206;23;20528;-70
2022/07/22 11:34:56;;;;;;;8.30;1.00;;;18.00;99.90;;;;;;6237501;23;20020;-69
2022/07/22 11:37:24;;;;;;;2.05;1.10;;;18.10;99.50;;;;;;6236010;23;20020;-70
2022/07/22 11:40:10;;;;;;;4.15;1.08;;;18.20;99.90;;;;;;6237826;23;20504;-70
2022/07/22 11:42:36;;;;;;;5.15;0.88;;;18.20;99.90;;;;;;6236569;23;20351;-69
2022/07/22 11:45:03;;;;;;;1.95;0.57;;;18.20;99.90;;;;;;6235452;23;20020;-69
2022/07/22 11:47:29;;;;;;;4.63;0.70;;;18.20;99.90;;;;;;6212464;23;20027;-70
2022/07/22 11:49:54;;;;;;;3.22;0.73;;;18.20;99.90;;;;;;6235251;23;20028;-71
2022/07/22 11:52:20;;;;;;;3.55;0.60;;;18.20;99.90;;;;;;6212279;23;20048;-70
2022/07/22 11:54:46;;;;;;;3.63;0.68;;;18.10;99.10;;;;;;6235287;23;20020;-71
2022/07/22 11:57:14;;;;;;;2.75;0.88;;;18.10;99.90;;;;;;6211202;23;20039;-71
2022/07/22 11:59:40;;;;;;;3.58;0.63;;;18.10;99.90;;;;;;6236322;23;20027;-70
2022/07/22 12:02:09;;;;;;;2.38;0.90;;;18.10;99.90;;;;;;6231780;23;20027;-71
2022/07/22 12:04:35;;;;;;;4.55;0.80;;;18.10;99.90;;;;;;6235059;23;20347;-71
2022/07/22 12:07:02;;;;;;;5.05;0.95;;;18.10;99.90;;;;;;6207785;23;20348;-71
2022/07/22 12:09:32;;;;;;;3.75;0.73;;;18.00;99.90;;;;;;6236649;23;20017;-70
2022/07/22 12:11:58;;;;;;;3.75;0.98;;;17.90;99.90;;;;;;6234241;23;20056;-71
2022/07/22 12:14:29;;;;;;;4.13;0.60;;;17.70;99.90;;;;;;6236528;23;20078;-71
2022/07/22 12:17:15;;;;;;;2.85;0.80;;;17.50;99.90;;;;;;6236589;22;20016;-70
2022/07/22 12:19:41;;;;;;;3.38;0.63;;;17.50;99.90;;;;;;6234764;23;20020;-71
2022/07/22 12:22:21;;;;;;;3.38;0.60;;;17.30;99.90;;;;;;6235494;23;20435;-71
2022/07/22 12:24:57;;;;;;;;;;;17.40;99.90;;;;;;6209641;23;20436;-71
2022/07/22 12:27:23;;;;;;;4.20;0.70;;;17.50;99.90;;;;;;6238374;22;19959;-71
2022/07/22 12:29:50;;;;;;;3.65;0.70;;;17.50;99.90;;;;;;6236033;23;20031;-71
2022/07/22 12:32:26;;;;;;;5.32;0.85;;;17.70;99.90;;;;;;6235230;23;20020;-71
2022/07/22 12:34:57;;;;;;;4.10;0.77;;;17.70;99.90;;;;;;6237406;23;20019;-71
2022/07/22 12:37:41;;;;;;;4.53;0.60;;;17.80;99.90;;;;;;6234982;23;20032;-71
2022/07/22 12:40:11;;;;;;;4.25;0.63;;;17.80;99.90;;;;;;6211243;23;20020;-71
2022/07/22 12:42:40;;;;;;;3.08;0.80;;;17.90;99.90;;;;;;6235309;23;20027;-71
2022/07/22 12:45:21;;;;;;;3.37;0.70;;;18.00;99.90;;;;;;6235053;23;20064;-71
2022/07/22 12:48:06;;;;;;;1.23;0.43;;;18.00;99.90;;;;;;6236114;23;20027;-71
2022/07/22 12:50:56;;;;;;;4.60;0.60;;;18.00;99.90;;;;;;6235221;23;20327;-71
2022/07/22 12:53:28;;;;;;;7.57;0.98;;;17.90;99.90;;;;;;6234132;23;20450;-71
2022/07/22 12:56:00;;;;;;;5.05;1.00;;;17.80;99.90;;;;;;6211514;23;20027;-71
2022/07/22 12:58:31;;;;;;;3.78;0.63;;;17.70;99.90;;;;;;6210426;23;20019;-71
2022/07/22 13:01:00;;;;;;;1.95;0.60;;;17.70;99.90;;;;;;6237191;23;20430;-71
2022/07/22 13:03:27;;;;;;;6.97;0.70;;;17.70;99.90;;;;;;6208640;23;20485;-71
2022/07/22 13:05:55;;;;;;;1.40;0.40;;;17.70;99.90;;;;;;6211938;23;20089;-70
2022/07/22 13:08:22;;;;;;;2.85;0.98;;;17.60;99.90;;;;;;6232369;23;20026;-71
2022/07/22 13:10:49;;;;;;;2.20;0.55;;;17.50;99.90;;;;;;6235766;23;20363;-71
2022/07/22 13:13:15;;;;;;;2.17;0.50;;;17.50;99.90;;;;;;6210077;23;20451;-71
2022/07/22 13:15:41;;;;;;;1.00;0.38;;;17.50;99.90;;;;;;6210367;23;20020;-71
2022/07/22 13:18:07;;;;;;;4.35;0.63;;;17.50;99.90;;;;;;6235620;23;20016;-71
2022/07/22 13:20:33;;;;;;;2.28;0.57;;;17.50;99.90;;;;;;6209212;23;20051;-71
2022/07/22 13:22:59;;;;;;;8.43;1.00;;;17.50;99.90;;;;;;6238026;22;20437;-71
2022/07/22 13:25:26;;;;;;;1.17;0.55;;;17.50;99.90;;;;;;6230628;23;20126;-71
2022/07/22 13:27:53;;;;;;;4.20;0.85;;;17.50;99.90;;;;;;6233290;23;20401;-72
2022/07/22 13:30:19;;;;;;;2.22;0.60;;;17.50;99.90;;;;;;6232391;23;20069;-71
2022/07/22 13:32:45;;;;;;;3.65;0.77;;;17.60;99.90;;;;;;6208378;23;20354;-71
2022/07/22 13:35:11;;;;;;;2.78;0.43;;;17.60;99.90;;;;;;6208248;23;20053;-71
2022/07/22 13:37:37;;;;;;;2.40;0.80;;;17.70;99.90;;;;;;6234255;22;20020;-71
2022/07/22 13:40:04;;;;;;;1.27;0.55;;;17.70;99.90;;;;;;6182846;23;20035;-71
2022/07/22 13:42:30;;;;;;;2.78;0.32;;;17.70;99.90;;;;;;6206194;23;20111;-72
2022/07/22 13:44:56;;;;;;;2.90;0.40;;;17.80;99.90;;;;;;6234177;23;20063;-72
2022/07/22 13:47:22;;;;;;;1.17;0.57;;;17.80;99.90;;;;;;6205834;23;20053;-71
2022/07/22 13:49:49;;;;;;;1.48;0.47;;;17.80;99.90;;;;;;6208576;23;20442;-71
2022/07/22 13:52:18;;;;;;;3.33;0.60;;;17.80;99.90;;;;;;6232105;23;20020;-71